Time,TemperatureF,DewpointF,PressureIn,WindDirection,WindDirectionDegrees,WindSpeedMPH,WindSpeedGustMPH,Humidity,HourlyPrecipIn,Conditions,Clouds,dailyrainin,SoftwareType,DateUTC
2013-06-07 00:07:00,56.3,50.2,30.02,WSW,250,0.0,0.0,80,0.00,,,0.00,Wunderground v.1.15,2013-06-07 07:07:00,
2013-06-07 00:12:00,56.3,50.2,30.02,WSW,257,0.0,0.0,80,0.00,,,0.00,Wunderground v.1.15,2013-06-07 07:12:00,
2013-06-07 00:22:00,56.2,50.4,30.00,WSW,254,0.0,0.0,81,0.00,,,0.00,Wunderground v.1.15,2013-06-07 07:22:00,
2013-06-07 00:32:00,56.0,50.6,30.01,West,274,0.0,0.0,82,0.00,,,0.00,Wunderground v.1.15,2013-06-07 07:32:00,
2013-06-07 00:37:00,56.0,50.9,30.01,West,272,0.0,0.0,83,0.00,,,0.00,Wunderground v.1.15,2013-06-07 07:37:00,
2013-06-07 00:47:00,55.9,51.1,30.01,WNW,282,0.0,0.0,84,0.00,,,0.00,Wunderground v.1.15,2013-06-07 07:47:00,
2013-06-07 00:52:00,55.7,51.3,30.01,West,278,0.0,0.0,85,0.00,,,0.00,Wunderground v.1.15,2013-06-07 07:52:00,
2013-06-07 01:02:00,55.6,51.8,30.01,West,267,0.0,0.0,87,0.00,,,0.00,Wunderground v.1.15,2013-06-07 08:02:00,
2013-06-07 01:07:00,55.6,52.1,30.01,West,267,0.0,0.0,88,0.00,,,0.00,Wunderground v.1.15,2013-06-07 08:07:00,
2013-06-07 01:12:00,55.4,51.9,30.01,West,267,0.0,0.0,88,0.00,,,0.00,Wunderground v.1.15,2013-06-07 08:12:00,
2013-06-07 01:22:00,55.4,52.2,30.01,West,267,0.0,0.0,89,0.00,,,0.00,Wunderground v.1.15,2013-06-07 08:22:00,
2013-06-07 01:27:00,55.4,53.1,30.01,West,265,0.0,0.0,92,0.00,,,0.00,Wunderground v.1.15,2013-06-07 08:27:00,
2013-06-07 01:37:00,55.1,53.7,30.01,West,265,0.0,0.0,95,0.00,,,0.00,Wunderground v.1.15,2013-06-07 08:37:00,
2013-06-07 01:42:00,55.1,54.5,30.01,West,265,0.0,0.0,98,0.00,,,0.00,Wunderground v.1.15,2013-06-07 08:42:00,
2013-06-07 01:52:00,55.0,55.0,30.01,West,264,0.0,0.0,100,0.00,,,0.00,Wunderground v.1.15,2013-06-07 08:52:00,
2013-06-07 01:57:00,54.8,54.8,30.01,West,264,0.0,0.0,100,0.00,,,0.00,Wunderground v.1.15,2013-06-07 08:57:00,
2013-06-07 02:07:00,54.7,54.7,30.02,WNW,288,0.0,7.0,100,0.00,,,0.00,Wunderground v.1.15,2013-06-07 09:07:00,
2013-06-07 02:17:00,54.5,54.5,30.02,NW,305,0.0,0.0,100,0.00,,,0.00,Wunderground v.1.15,2013-06-07 09:17:00,
2013-06-07 02:27:00,54.5,54.5,30.02,West,278,0.0,0.0,100,0.00,,,0.00,Wunderground v.1.15,2013-06-07 09:27:00,
2013-06-07 02:37:00,54.4,54.4,30.02,West,272,0.0,0.0,100,0.00,,,0.00,Wunderground v.1.15,2013-06-07 09:37:00,
2013-06-07 02:47:00,54.1,54.1,30.02,West,272,0.0,0.0,100,0.00,,,0.00,Wunderground v.1.15,2013-06-07 09:47:00,
2013-06-07 02:57:00,53.9,53.9,30.02,West,272,0.0,0.0,100,0.00,,,0.00,Wunderground v.1.15,2013-06-07 09:57:00,
2013-06-07 03:02:00,53.9,53.9,30.03,WNW,284,0.0,0.0,100,0.00,,,0.00,Wunderground v.1.15,2013-06-07 10:02:00,
2013-06-07 03:07:00,53.8,53.8,30.03,WSW,254,0.0,0.0,100,0.00,,,0.00,Wunderground v.1.15,2013-06-07 10:07:00,
2013-06-07 03:17:00,53.6,53.6,30.03,WSW,257,0.0,0.0,100,0.00,,,0.00,Wunderground v.1.15,2013-06-07 10:17:00,
2013-06-07 03:27:00,53.6,53.6,30.03,WSW,257,0.0,0.0,100,0.00,,,0.00,Wunderground v.1.15,2013-06-07 10:27:00,
2013-06-07 03:32:00,53.6,53.6,30.03,WSW,250,0.0,0.0,100,0.00,,,0.00,Wunderground v.1.15,2013-06-07 10:32:00,
2013-06-07 03:42:00,53.5,53.5,30.03,WSW,250,0.0,0.0,100,0.00,,,0.00,Wunderground v.1.15,2013-06-07 10:42:00,
2013-06-07 03:47:00,53.5,53.5,30.04,WSW,250,0.0,0.0,100,0.00,,,0.00,Wunderground v.1.15,2013-06-07 10:47:00,
2013-06-07 03:57:00,53.5,53.5,30.04,WSW,253,0.0,0.0,100,0.00,,,0.00,Wunderground v.1.15,2013-06-07 10:57:00,
2013-06-07 04:07:00,53.5,53.5,30.03,WSW,253,0.0,0.0,100,0.00,,,0.00,Wunderground v.1.15,2013-06-07 11:07:00,
2013-06-07 04:17:00,53.3,53.3,30.03,WSW,253,0.0,0.0,100,0.00,,,0.00,Wunderground v.1.15,2013-06-07 11:17:00,
2013-06-07 04:22:00,53.3,53.3,30.03,WSW,253,0.0,0.0,100,0.00,,,0.00,Wunderground v.1.15,2013-06-07 11:22:00,
2013-06-07 04:32:00,53.1,53.1,30.04,WSW,251,0.0,0.0,100,0.00,,,0.00,Wunderground v.1.15,2013-06-07 11:32:00,
2013-06-07 04:37:00,53.1,53.1,30.04,WSW,251,0.0,0.0,100,0.00,,,0.00,Wunderground v.1.15,2013-06-07 11:37:00,
2013-06-07 04:47:00,52.9,52.9,30.03,WSW,251,0.0,0.0,100,0.00,,,0.00,Wunderground v.1.15,2013-06-07 11:47:00,
2013-06-07 04:52:00,52.9,52.9,30.03,WSW,251,0.0,0.0,100,0.00,,,0.00,Wunderground v.1.15,2013-06-07 11:52:00,
2013-06-07 05:02:00,52.6,52.6,30.04,WSW,251,0.0,0.0,100,0.00,,,0.00,Wunderground v.1.15,2013-06-07 12:02:00,
2013-06-07 05:07:00,52.5,52.5,30.04,WSW,251,0.0,0.0,100,0.00,,,0.00,Wunderground v.1.15,2013-06-07 12:07:00,
2013-06-07 05:17:00,52.2,52.2,30.04,WSW,251,0.0,0.0,100,0.00,,,0.00,Wunderground v.1.15,2013-06-07 12:17:00,
2013-06-07 05:27:00,52.0,52.0,30.04,WSW,250,0.0,0.0,100,0.00,,,0.00,Wunderground v.1.15,2013-06-07 12:27:00,
2013-06-07 05:32:00,52.0,52.0,30.05,WSW,258,0.0,0.0,100,0.00,,,0.00,Wunderground v.1.15,2013-06-07 12:32:00,
2013-06-07 05:42:00,51.7,51.7,30.05,WSW,244,0.0,0.0,100,0.00,,,0.00,Wunderground v.1.15,2013-06-07 12:42:00,
2013-06-07 05:52:00,51.6,51.6,30.05,WSW,243,0.0,0.0,100,0.00,,,0.00,Wunderground v.1.15,2013-06-07 12:52:00,
2013-06-07 05:57:00,51.6,51.6,30.05,WSW,239,0.0,0.0,100,0.00,,,0.00,Wunderground v.1.15,2013-06-07 12:57:00,
2013-06-07 06:07:00,51.9,51.9,30.05,WSW,248,0.0,0.0,100,0.00,,,0.00,Wunderground v.1.15,2013-06-07 13:07:00,
2013-06-07 06:12:00,52.0,52.0,30.05,WSW,248,0.0,0.0,100,0.00,,,0.00,Wunderground v.1.15,2013-06-07 13:12:00,
2013-06-07 06:22:00,52.6,52.6,30.05,WSW,248,0.0,0.0,100,0.00,,,0.00,Wunderground v.1.15,2013-06-07 13:22:00,
2013-06-07 06:32:00,53.8,53.8,30.06,WSW,247,0.0,0.0,100,0.00,,,0.00,Wunderground v.1.15,2013-06-07 13:32:00,
2013-06-07 06:37:00,54.1,54.1,30.06,WSW,247,0.0,0.0,100,0.00,,,0.00,Wunderground v.1.15,2013-06-07 13:37:00,
2013-06-07 06:47:00,55.0,55.0,30.05,WSW,247,0.0,0.0,100,0.00,,,0.00,Wunderground v.1.15,2013-06-07 13:47:00,
2013-06-07 06:52:00,55.3,55.3,30.05,WSW,247,0.0,0.0,100,0.00,,,0.00,Wunderground v.1.15,2013-06-07 13:52:00,
2013-06-07 07:02:00,55.3,55.0,30.05,WSW,247,0.0,0.0,99,0.00,,,0.00,Wunderground v.1.15,2013-06-07 14:02:00,
2013-06-07 07:07:00,55.4,55.1,30.05,SW,233,0.0,0.0,99,0.00,,,0.00,Wunderground v.1.15,2013-06-07 14:07:00,
2013-06-07 07:17:00,55.7,54.6,30.05,SW,233,0.0,0.0,96,0.00,,,0.00,Wunderground v.1.15,2013-06-07 14:17:00,
2013-06-07 07:27:00,56.0,54.6,30.05,SW,229,0.0,0.0,95,0.00,,,0.00,Wunderground v.1.15,2013-06-07 14:27:00,
2013-06-07 07:32:00,56.0,54.3,30.06,SW,229,0.0,0.0,94,0.00,,,0.00,Wunderground v.1.15,2013-06-07 14:32:00,
2013-06-07 07:42:00,56.3,54.9,30.06,SW,230,0.0,0.0,95,0.00,,,0.00,Wunderground v.1.15,2013-06-07 14:42:00,
2013-06-07 07:52:00,56.5,54.2,30.05,SW,229,0.0,0.0,92,0.00,,,0.00,Wunderground v.1.15,2013-06-07 14:52:00,
2013-06-07 08:02:00,56.9,53.7,30.05,SW,229,0.0,0.0,89,0.00,,,0.00,Wunderground v.1.15,2013-06-07 15:02:00,
2013-06-07 08:07:00,57.5,54.3,30.05,SW,229,0.0,0.0,89,0.00,,,0.00,Wunderground v.1.15,2013-06-07 15:07:00,
2013-06-07 08:12:00,58.3,53.5,30.05,SW,226,0.0,0.0,84,0.00,,,0.00,Wunderground v.1.15,2013-06-07 15:12:00,
2013-06-07 08:22:00,58.7,53.2,30.06,SW,226,0.0,0.0,82,0.00,,,0.00,Wunderground v.1.15,2013-06-07 15:22:00,
2013-06-07 08:32:00,59.3,52.8,30.06,SW,226,0.0,0.0,79,0.00,,,0.00,Wunderground v.1.15,2013-06-07 15:32:00,
2013-06-07 08:37:00,59.5,51.9,30.06,SSW,213,0.0,0.0,76,0.00,,,0.00,Wunderground v.1.15,2013-06-07 15:37:00,
2013-06-07 08:47:00,59.0,50.7,30.06,SSW,198,0.0,0.0,74,0.00,,,0.00,Wunderground v.1.15,2013-06-07 15:47:00,
2013-06-07 08:57:00,59.2,50.9,30.06,SSW,198,0.0,0.0,74,0.00,,,0.00,Wunderground v.1.15,2013-06-07 15:57:00,
2013-06-07 09:02:00,59.0,50.7,30.05,SSW,198,0.0,0.0,74,0.00,,,0.00,Wunderground v.1.15,2013-06-07 16:02:00,
2013-06-07 09:07:00,59.0,50.4,30.05,SSW,198,0.0,0.0,73,0.00,,,0.00,Wunderground v.1.15,2013-06-07 16:07:00,
2013-06-07 09:22:00,59.5,49.3,30.06,SSW,196,0.0,0.0,69,0.00,,,0.00,Wunderground v.1.15,2013-06-07 16:22:00,
2013-06-07 09:27:00,59.6,49.4,30.06,SSW,196,0.0,0.0,69,0.00,,,0.00,Wunderground v.1.15,2013-06-07 16:27:00,
2013-06-07 09:37:00,60.5,49.5,30.05,SSW,196,0.0,0.0,67,0.00,,,0.00,Wunderground v.1.15,2013-06-07 16:37:00,
2013-06-07 09:42:00,61.2,50.2,30.05,SSW,196,0.0,0.0,67,0.00,,,0.00,Wunderground v.1.15,2013-06-07 16:42:00,
2013-06-07 09:52:00,62.1,49.4,30.05,SSW,196,0.0,0.0,63,0.00,,,0.00,Wunderground v.1.15,2013-06-07 16:52:00,
2013-06-07 10:02:00,62.3,49.1,30.05,SSW,196,0.0,0.0,62,0.00,,,0.00,Wunderground v.1.15,2013-06-07 17:02:00,
2013-06-07 10:07:00,62.4,48.8,30.05,SSW,196,0.0,0.0,61,0.00,,,0.00,Wunderground v.1.15,2013-06-07 17:07:00,
2013-06-07 10:17:00,63.7,48.2,30.05,SSW,196,0.0,0.0,57,0.00,,,0.00,Wunderground v.1.15,2013-06-07 17:17:00,
2013-06-07 10:22:00,63.7,47.7,30.05,SSW,192,0.0,0.0,56,0.00,,,0.00,Wunderground v.1.15,2013-06-07 17:22:00,
2013-06-07 10:32:00,64.0,46.5,30.05,SSW,192,0.0,0.0,53,0.00,,,0.00,Wunderground v.1.15,2013-06-07 17:32:00,
2013-06-07 10:37:00,64.0,47.5,30.05,SSW,192,0.0,0.0,55,0.00,,,0.00,Wunderground v.1.15,2013-06-07 17:37:00,
2013-06-07 10:47:00,65.3,47.2,30.05,SSW,192,0.0,0.0,52,0.00,,,0.00,Wunderground v.1.15,2013-06-07 17:47:00,
2013-06-07 10:57:00,65.8,46.6,30.05,SSW,192,0.0,0.0,50,0.00,,,0.00,Wunderground v.1.15,2013-06-07 17:57:00,
2013-06-07 11:07:00,66.3,46.0,30.06,SSW,192,0.0,0.0,48,0.00,,,0.00,Wunderground v.1.15,2013-06-07 18:07:00,
2013-06-07 11:17:00,66.9,46.6,30.06,SSW,192,0.0,0.0,48,0.00,,,0.00,Wunderground v.1.15,2013-06-07 18:17:00,
2013-06-07 11:27:00,68.4,46.8,30.06,SSW,192,0.0,0.0,46,0.00,,,0.00,Wunderground v.1.15,2013-06-07 18:27:00,
2013-06-07 11:37:00,69.4,47.1,30.06,SSW,192,0.0,0.0,45,0.00,,,0.00,Wunderground v.1.15,2013-06-07 18:37:00,
2013-06-07 11:42:00,69.6,47.9,30.06,South,189,0.0,0.0,46,0.00,,,0.00,Wunderground v.1.15,2013-06-07 18:42:00,
2013-06-07 11:52:00,69.1,46.9,30.06,South,189,0.0,0.0,45,0.00,,,0.00,Wunderground v.1.15,2013-06-07 18:52:00,
2013-06-07 12:02:00,70.3,48.5,30.06,SSW,200,0.0,0.0,46,0.00,,,0.00,Wunderground v.1.15,2013-06-07 19:02:00,
2013-06-07 12:07:00,69.9,48.7,30.06,WNW,296,0.0,0.0,47,0.00,,,0.00,Wunderground v.1.15,2013-06-07 19:07:00,
2013-06-07 12:17:00,66.9,41.8,30.06,WNW,294,1.0,2.0,40,0.00,,,0.00,Wunderground v.1.15,2013-06-07 19:17:00,
2013-06-07 12:27:00,66.3,45.5,30.06,WNW,298,1.0,3.0,47,0.00,,,0.00,Wunderground v.1.15,2013-06-07 19:27:00,
2013-06-07 12:37:00,67.8,45.7,30.06,South,191,0.0,1.0,45,0.00,,,0.00,Wunderground v.1.15,2013-06-07 19:37:00,
2013-06-07 12:47:00,68.9,46.1,30.06,SW,217,1.0,1.0,44,0.00,,,0.00,Wunderground v.1.15,2013-06-07 19:47:00,
2013-06-07 12:57:00,68.1,45.9,30.06,West,274,1.0,2.0,45,0.00,,,0.00,Wunderground v.1.15,2013-06-07 19:57:00,
2013-06-07 13:07:00,68.9,46.1,30.05,South,181,1.0,3.0,44,0.00,,,0.00,Wunderground v.1.15,2013-06-07 20:07:00,
2013-06-07 13:17:00,70.4,46.8,30.05,NNE,18,0.0,0.0,43,0.00,,,0.00,Wunderground v.1.15,2013-06-07 20:17:00,
2013-06-07 13:27:00,70.4,48.6,30.05,NNW,337,1.0,1.0,46,0.00,,,0.00,Wunderground v.1.15,2013-06-07 20:27:00,
2013-06-07 13:37:00,69.6,49.0,30.05,WNW,298,1.0,6.0,48,0.00,,,0.00,Wunderground v.1.15,2013-06-07 20:37:00,
2013-06-07 13:47:00,69.3,49.3,30.05,SSW,202,1.0,6.0,49,0.00,,,0.00,Wunderground v.1.15,2013-06-07 20:47:00,
2013-06-07 13:52:00,69.3,48.8,30.05,NW,320,1.0,1.0,48,0.00,,,0.00,Wunderground v.1.15,2013-06-07 20:52:00,
2013-06-07 14:02:00,69.6,49.6,30.05,NNW,328,1.0,1.0,49,0.00,,,0.00,Wunderground v.1.15,2013-06-07 21:02:00,
2013-06-07 14:22:00,68.8,51.0,30.05,NW,322,2.0,2.0,53,0.00,,,0.00,Wunderground v.1.15,2013-06-07 21:22:00,
2013-06-07 14:32:00,69.3,52.4,30.05,WNW,292,1.0,1.0,55,0.00,,,0.00,Wunderground v.1.15,2013-06-07 21:32:00,
2013-06-07 14:37:00,68.8,52.9,30.05,WNW,285,2.0,2.0,57,0.00,,,0.00,Wunderground v.1.15,2013-06-07 21:37:00,
2013-06-07 14:47:00,69.4,54.4,30.05,WNW,294,1.0,10.0,59,0.00,,,0.00,Wunderground v.1.15,2013-06-07 21:47:00,
2013-06-07 14:57:00,68.4,53.5,30.05,NW,316,3.0,3.0,59,0.00,,,0.00,Wunderground v.1.15,2013-06-07 21:57:00,
2013-06-07 15:07:00,67.9,54.0,30.05,NW,312,3.0,4.0,61,0.00,,,0.00,Wunderground v.1.15,2013-06-07 22:07:00,
2013-06-07 15:17:00,67.9,54.0,30.04,West,274,6.0,7.0,61,0.00,,,0.00,Wunderground v.1.15,2013-06-07 22:17:00,
2013-06-07 15:27:00,68.8,55.7,30.04,NW,311,5.0,5.0,63,0.00,,,0.00,Wunderground v.1.15,2013-06-07 22:27:00,
2013-06-07 15:37:00,68.8,55.7,30.05,NNW,339,4.0,5.0,63,0.00,,,0.00,Wunderground v.1.15,2013-06-07 22:37:00,
2013-06-07 15:42:00,68.1,55.0,30.05,NNW,344,5.0,7.0,63,0.00,,,0.00,Wunderground v.1.15,2013-06-07 22:42:00,
2013-06-07 15:57:00,67.3,54.3,30.05,WNW,302,7.0,10.0,63,0.00,,,0.00,Wunderground v.1.15,2013-06-07 22:57:00,
2013-06-07 16:07:00,66.8,55.1,30.06,NNW,332,8.0,10.0,66,0.00,,,0.00,Wunderground v.1.15,2013-06-07 23:07:00,
2013-06-07 16:17:00,67.1,54.1,30.06,NNW,328,8.0,11.0,63,0.00,,,0.00,Wunderground v.1.15,2013-06-07 23:17:00,
2013-06-07 16:27:00,66.6,54.5,30.06,West,272,9.0,9.0,65,0.00,,,0.00,Wunderground v.1.15,2013-06-07 23:27:00,
2013-06-07 16:32:00,66.8,54.7,30.06,WSW,244,9.0,9.0,65,0.00,,,0.00,Wunderground v.1.15,2013-06-07 23:32:00,
2013-06-07 16:47:00,65.8,54.5,30.06,NW,309,7.0,14.0,67,0.00,,,0.00,Wunderground v.1.15,2013-06-07 23:47:00,
2013-06-07 16:52:00,66.0,54.3,30.06,West,264,4.0,4.0,66,0.00,,,0.00,Wunderground v.1.15,2013-06-07 23:52:00,